createdAt,value
2022-10-25T00:01:20.939Z,93.53
2022-10-25T00:04:23.980Z,93.28
2022-10-25T00:07:26.598Z,93.46
2022-10-25T00:10:30.026Z,93.62
2022-10-25T00:13:33.383Z,93.63
2022-10-25T00:16:38.338Z,93.82
2022-10-25T00:19:40.961Z,93.48
2022-10-25T00:22:43.982Z,93.45
2022-10-25T00:25:48.475Z,93.09
2022-10-25T00:28:54.315Z,93.06
2022-10-25T00:31:56.875Z,93.22
2022-10-25T00:34:59.848Z,93.38
2022-10-25T00:38:02.976Z,93.17
2022-10-25T00:41:06.975Z,92.67
2022-10-25T00:44:40.582Z,92.29
2022-10-25T00:47:53.113Z,92.50
2022-10-25T00:50:56.204Z,92.18
2022-10-25T00:53:59.274Z,92.31
2022-10-25T00:57:08.900Z,92.07
2022-10-25T01:00:12.699Z,91.46
2022-10-25T01:03:17.266Z,92.43
2022-10-25T01:06:53.422Z,92.24
2022-10-25T01:09:57.591Z,91.89
2022-10-25T01:13:02.676Z,92.69
2022-10-25T01:16:35.940Z,93.07
2022-10-25T01:20:09.628Z,92.79
2022-10-25T01:23:24.775Z,92.07
2022-10-25T01:27:05.818Z,91.46
2022-10-25T01:31:03.567Z,91.79
2022-10-25T01:34:17.950Z,91.19
2022-10-25T01:37:31.177Z,90.52
2022-10-25T01:40:59.725Z,90.67
2022-10-25T01:44:42.160Z,91.98
2022-10-25T01:47:53.052Z,91.79
2022-10-25T01:50:55.648Z,91.61
2022-10-25T01:53:58.627Z,91.95
2022-10-25T01:57:34.546Z,92.16
2022-10-25T02:00:53.777Z,93.02
2022-10-25T02:04:19.993Z,93.63
2022-10-25T02:07:35.953Z,92.87
2022-10-25T02:10:50.839Z,93.12
2022-10-25T02:14:15.315Z,92.60
2022-10-25T02:17:24.574Z,93.03
2022-10-25T02:20:32.080Z,92.60
2022-10-25T02:23:36.506Z,92.68
2022-10-25T02:26:43.527Z,92.93
2022-10-25T02:29:47.555Z,93.26
2022-10-25T02:32:51.849Z,92.89
2022-10-25T02:36:08.967Z,92.64
2022-10-25T02:39:11.888Z,92.91
2022-10-25T02:42:14.457Z,92.96
2022-10-25T02:45:17.525Z,93.06
2022-10-25T02:48:20.115Z,92.32
2022-10-25T02:51:23.364Z,92.44
2022-10-25T02:54:26.045Z,92.55
2022-10-25T02:57:36.584Z,92.02
2022-10-25T03:00:39.208Z,92.57
2022-10-25T03:03:42.976Z,92.12
2022-10-25T03:06:46.579Z,91.88
2022-10-25T03:09:49.567Z,91.80
2022-10-25T03:12:52.102Z,91.44
2022-10-25T03:15:55.125Z,91.48
2022-10-25T03:18:58.939Z,91.25
2022-10-25T03:22:02.966Z,91.07
2022-10-25T03:25:06.174Z,90.80
2022-10-25T03:28:09.518Z,90.64
2022-10-25T03:31:13.989Z,91.99
2022-10-25T03:34:17.233Z,91.70
2022-10-25T03:37:21.190Z,92.16
2022-10-25T03:40:25.301Z,92.70
2022-10-25T03:43:28.427Z,94.14
2022-10-25T03:46:31.335Z,93.79
2022-10-25T03:49:33.923Z,93.29
2022-10-25T03:52:36.934Z,92.51
2022-10-25T03:55:42.123Z,91.87
2022-10-25T03:58:45.044Z,92.66
2022-10-25T04:01:48.014Z,91.91
2022-10-25T04:04:50.972Z,91.63
2022-10-25T04:07:54.015Z,91.35
2022-10-25T04:10:56.934Z,91.30
2022-10-25T04:13:59.575Z,91.52
2022-10-25T04:17:02.470Z,91.62
2022-10-25T04:20:05.758Z,90.97
2022-10-25T04:23:08.620Z,90.81
2022-10-25T04:26:11.317Z,90.76
2022-10-25T04:29:14.452Z,90.80
2022-10-25T04:32:17.252Z,90.66
2022-10-25T04:35:20.681Z,91.47
2022-10-25T04:38:24.463Z,90.95
2022-10-25T04:41:27.642Z,90.93
2022-10-25T04:44:30.311Z,90.87
2022-10-25T04:47:33.476Z,90.77
2022-10-25T04:50:37.874Z,90.93
2022-10-25T04:53:40.911Z,90.75
2022-10-25T04:56:43.558Z,90.21
2022-10-25T04:59:46.387Z,90.13
2022-10-25T05:02:52.196Z,90.52
2022-10-25T05:05:55.502Z,91.25
2022-10-25T05:08:58.155Z,91.52
2022-10-25T05:12:01.215Z,91.22
2022-10-25T05:15:04.981Z,90.86
2022-10-25T05:18:07.851Z,90.58
2022-10-25T05:21:10.639Z,90.75
2022-10-25T05:24:13.513Z,91.50
2022-10-25T05:27:16.528Z,93.14
2022-10-25T05:30:19.478Z,93.36
2022-10-25T05:33:22.167Z,93.18
2022-10-25T05:36:25.945Z,92.29
2022-10-25T05:39:28.517Z,92.18
2022-10-25T05:42:31.437Z,92.90
2022-10-25T05:45:34.005Z,93.13
2022-10-25T05:48:37.630Z,92.91
2022-10-25T05:51:40.265Z,93.52
2022-10-25T05:54:43.129Z,93.36
2022-10-25T05:57:51.834Z,93.51
2022-10-25T06:00:59.813Z,94.17
2022-10-25T06:04:02.798Z,95.88
2022-10-25T06:07:06.808Z,95.59
2022-10-25T06:10:10.865Z,95.92
2022-10-25T06:13:13.593Z,95.72
2022-10-25T06:16:18.352Z,95.09
2022-10-25T06:19:21.072Z,95.01
2022-10-25T06:22:23.947Z,95.61
2022-10-25T06:25:26.599Z,96.12
2022-10-25T06:28:29.977Z,96.87
2022-10-25T06:31:33.266Z,96.99
2022-10-25T06:34:36.145Z,97.05
2022-10-25T06:37:39.140Z,96.94
2022-10-25T06:40:42.015Z,97.21
2022-10-25T06:43:45.461Z,97.13
2022-10-25T06:47:18.371Z,97.16
2022-10-25T06:50:11.045Z,97.26
2022-10-25T06:53:14.827Z,97.35
2022-10-25T06:56:17.484Z,97.20
2022-10-25T06:59:20.723Z,97.18
2022-10-25T07:02:23.693Z,97.20
2022-10-25T07:05:29.422Z,97.03
2022-10-25T07:08:36.605Z,96.71
2022-10-25T07:11:39.722Z,96.66
2022-10-25T07:14:44.677Z,96.20
2022-10-25T07:17:48.878Z,96.42
2022-10-25T07:20:51.665Z,96.41
2022-10-25T07:23:54.579Z,96.37
2022-10-25T07:26:57.120Z,95.96
2022-10-25T07:30:00.195Z,95.65
2022-10-25T07:33:03.500Z,95.46
2022-10-25T07:36:10.979Z,95.80
2022-10-25T07:39:15.405Z,95.99
2022-10-25T07:42:18.403Z,95.87
2022-10-25T07:45:23.643Z,95.96
2022-10-25T07:48:28.309Z,95.91
2022-10-25T07:51:30.890Z,95.38
2022-10-25T07:54:33.858Z,95.48
2022-10-25T07:57:36.552Z,95.51
2022-10-25T08:00:39.625Z,95.44
2022-10-25T08:03:42.625Z,95.52
2022-10-25T08:06:45.272Z,95.46
2022-10-25T08:09:48.314Z,94.82
2022-10-25T08:12:51.062Z,94.16
2022-10-25T08:15:56.701Z,94.52
2022-10-25T08:19:00.544Z,94.54
2022-10-25T08:22:04.221Z,93.89
2022-10-25T08:25:07.241Z,94.01
2022-10-25T08:28:10.230Z,93.67
2022-10-25T08:31:12.802Z,94.32
2022-10-25T08:34:15.776Z,93.31
2022-10-25T08:37:18.476Z,93.34
2022-10-25T08:40:25.778Z,93.26
2022-10-25T08:43:51.326Z,92.98
2022-10-25T08:47:22.619Z,92.82
2022-10-25T08:50:53.780Z,92.69
2022-10-25T08:54:00.577Z,92.71
2022-10-25T08:57:17.688Z,92.41
2022-10-25T09:00:24.307Z,92.42
2022-10-25T09:03:27.607Z,91.73
2022-10-25T09:07:27.180Z,90.99
2022-10-25T09:10:50.700Z,89.54
2022-10-25T09:14:09.080Z,88.69
2022-10-25T09:17:19.312Z,88.39
2022-10-25T09:20:31.798Z,88.20
2022-10-25T09:23:34.409Z,86.67
2022-10-25T09:26:44.709Z,85.90
2022-10-25T09:30:01.331Z,85.28
2022-10-25T09:33:11.728Z,85.06
2022-10-25T09:36:15.194Z,80.17
2022-10-25T09:39:44.006Z,76.42
2022-10-25T09:43:08.712Z,70.78
2022-10-25T09:46:23.095Z,68.65
2022-10-25T09:49:38.927Z,72.80
2022-10-25T09:53:13.006Z,70.71
2022-10-25T09:56:17.483Z,68.79
2022-10-25T09:59:22.174Z,67.00
2022-10-25T10:02:27.543Z,67.52
2022-10-25T10:05:32.926Z,65.93
2022-10-25T10:08:36.537Z,62.21
2022-10-25T10:11:41.631Z,61.68
2022-10-25T10:14:57.259Z,60.89
2022-10-25T10:18:25.140Z,60.90
2022-10-25T10:21:27.774Z,60.03
2022-10-25T10:24:30.736Z,56.75
2022-10-25T10:27:34.327Z,58.85
2022-10-25T10:30:39.085Z,60.25
2022-10-25T10:33:47.235Z,63.33
2022-10-25T10:37:07.590Z,62.85
2022-10-25T10:40:10.158Z,60.66
2022-10-25T10:43:42.577Z,58.17
2022-10-25T10:46:47.087Z,56.53
2022-10-25T10:49:50.120Z,55.07
2022-10-25T10:53:03.780Z,53.43
2022-10-25T10:56:08.235Z,51.77
2022-10-25T10:59:43.076Z,53.27
2022-10-25T11:02:47.001Z,51.23
2022-10-25T11:05:54.085Z,50.17
2022-10-25T11:09:20.893Z,48.92
2022-10-25T11:12:23.547Z,49.83
2022-10-25T11:15:30.087Z,48.94
2022-10-25T11:18:56.238Z,47.14
2022-10-25T11:22:32.084Z,46.12
2022-10-25T11:25:53.081Z,44.67
2022-10-25T11:29:10.982Z,43.63
2022-10-25T11:32:32.214Z,43.63
2022-10-25T11:35:43.123Z,41.31
2022-10-25T11:39:01.066Z,41.33
2022-10-25T11:42:31.016Z,40.25
2022-10-25T11:45:44.378Z,40.50
2022-10-25T11:48:49.891Z,38.54
2022-10-25T11:52:22.354Z,39.94
2022-10-25T11:55:31.485Z,38.31
2022-10-25T11:58:46.333Z,38.97
2022-10-25T12:01:58.647Z,37.65
2022-10-25T12:05:17.914Z,39.12
2022-10-25T12:08:29.466Z,39.25
2022-10-25T12:11:40.672Z,38.10
2022-10-25T12:14:47.891Z,39.69
2022-10-25T12:17:52.424Z,39.70
2022-10-25T12:20:56.065Z,38.58
2022-10-25T12:24:00.567Z,37.87
2022-10-25T12:27:04.431Z,37.98
2022-10-25T12:30:15.204Z,38.17
2022-10-25T12:33:39.875Z,36.46
2022-10-25T12:36:51.480Z,36.04
2022-10-25T12:39:54.218Z,36.70
2022-10-25T12:43:05.955Z,35.99
2022-10-25T12:46:11.397Z,37.96
2022-10-25T12:49:45.343Z,37.27
2022-10-25T12:53:25.523Z,37.12
2022-10-25T12:57:02.857Z,37.01
2022-10-25T13:03:32.802Z,37.39
2022-10-25T13:06:39.159Z,38.07
2022-10-25T13:09:43.115Z,38.50
2022-10-25T13:13:08.123Z,38.96
2022-10-25T13:16:11.291Z,41.53
2022-10-25T13:19:30.640Z,43.44
2022-10-25T13:22:46.063Z,45.41
2022-10-25T13:25:48.583Z,46.45
2022-10-25T13:28:57.261Z,47.76
2022-10-25T13:32:10.289Z,48.82
2022-10-25T13:35:21.376Z,49.71
2022-10-25T13:38:28.359Z,51.98
2022-10-25T13:41:44.772Z,52.37
2022-10-25T13:44:54.850Z,53.52
2022-10-25T13:47:58.068Z,53.48
2022-10-25T13:51:09.437Z,54.21
2022-10-25T13:54:12.841Z,55.50
2022-10-25T13:57:46.523Z,55.03
2022-10-25T14:00:52.956Z,56.19
2022-10-25T14:04:04.606Z,56.58
2022-10-25T14:07:45.651Z,57.24
2022-10-25T14:10:53.122Z,57.93
2022-10-25T14:14:01.872Z,58.45
2022-10-25T14:17:07.453Z,58.79
2022-10-25T14:20:27.945Z,59.03
2022-10-25T14:23:34.828Z,58.55
2022-10-25T14:26:37.513Z,60.49
2022-10-25T14:29:41.233Z,60.29
2022-10-25T14:32:58.795Z,61.62
2022-10-25T14:36:23.036Z,61.27
2022-10-25T14:39:28.344Z,61.88
2022-10-25T14:42:31.303Z,61.82
2022-10-25T14:45:33.920Z,62.01
2022-10-25T14:48:37.033Z,61.80
2022-10-25T14:51:42.687Z,61.25
2022-10-25T14:54:47.576Z,61.12
2022-10-25T14:57:53.840Z,61.42
2022-10-25T15:01:04.139Z,61.71
2022-10-25T15:04:06.903Z,62.15
2022-10-25T15:07:19.004Z,62.34
2022-10-25T15:10:30.545Z,63.26
2022-10-25T15:13:42.633Z,63.02
2022-10-25T15:16:48.064Z,64.04
2022-10-25T15:20:03.139Z,63.79
2022-10-25T15:23:15.278Z,64.42
2022-10-25T15:26:28.539Z,64.17
2022-10-25T15:29:43.568Z,65.58
2022-10-25T15:32:46.701Z,64.98
2022-10-25T15:35:54.065Z,65.67
2022-10-25T15:39:09.391Z,65.96
2022-10-25T15:42:16.014Z,66.51
2022-10-25T15:45:18.942Z,66.85
2022-10-25T15:48:25.487Z,67.93
2022-10-25T15:51:31.166Z,68.88
2022-10-25T15:54:34.908Z,70.08
2022-10-25T15:57:37.757Z,70.61
2022-10-25T16:00:40.637Z,70.97
2022-10-25T16:03:44.058Z,71.14
2022-10-25T16:06:47.604Z,71.78
2022-10-25T16:09:50.463Z,72.45
2022-10-25T16:13:10.100Z,72.44
2022-10-25T16:16:43.313Z,72.82
2022-10-25T16:19:45.930Z,73.01
2022-10-25T16:22:49.699Z,72.94
2022-10-25T16:25:54.069Z,72.28
2022-10-25T16:28:57.059Z,74.24
2022-10-25T16:31:59.654Z,74.73
2022-10-25T16:35:02.503Z,75.78
2022-10-25T16:38:06.786Z,75.50
2022-10-25T16:41:26.459Z,75.88
2022-10-25T16:44:29.143Z,76.63
2022-10-25T16:47:32.023Z,76.82
2022-10-25T16:50:35.968Z,77.93
2022-10-25T16:53:40.726Z,78.92
2022-10-25T16:56:43.310Z,78.87
2022-10-25T16:59:46.815Z,78.99
2022-10-25T17:02:50.077Z,79.25
2022-10-25T17:05:53.606Z,79.33
2022-10-25T17:09:01.368Z,80.00
2022-10-25T17:12:04.608Z,78.95
2022-10-25T17:15:08.345Z,78.51
2022-10-25T17:18:15.269Z,79.99
2022-10-25T17:21:18.664Z,80.60
2022-10-25T17:24:21.790Z,79.00
2022-10-25T17:27:24.714Z,80.74
2022-10-25T17:30:27.761Z,81.84
2022-10-25T17:33:32.382Z,81.65
2022-10-25T17:36:35.578Z,81.28
2022-10-25T17:39:38.606Z,82.29
2022-10-25T17:42:43.331Z,83.26
2022-10-25T17:45:46.474Z,83.54
2022-10-25T17:48:54.350Z,83.66
2022-10-25T17:51:58.444Z,83.92
2022-10-25T17:55:01.880Z,83.96
2022-10-25T17:58:06.324Z,84.26
2022-10-25T18:01:11.199Z,84.27
2022-10-25T18:04:14.608Z,84.72
2022-10-25T18:07:17.514Z,84.21
2022-10-25T18:10:21.139Z,83.54
2022-10-25T18:13:25.230Z,82.51
2022-10-25T18:16:31.441Z,82.81
2022-10-25T18:19:34.528Z,82.38
2022-10-25T18:22:38.531Z,82.61
2022-10-25T18:25:51.355Z,82.93
2022-10-25T18:28:55.451Z,82.70
2022-10-25T18:31:58.260Z,83.31
2022-10-25T18:35:01.615Z,83.81
2022-10-25T18:38:05.772Z,83.49
2022-10-25T18:41:10.891Z,83.15
2022-10-25T18:44:15.290Z,84.40
2022-10-25T18:47:18.859Z,85.09
2022-10-25T18:50:23.732Z,85.67
2022-10-25T18:53:28.088Z,84.62
2022-10-25T18:56:33.608Z,84.51
2022-10-25T18:59:38.304Z,84.40
2022-10-25T19:02:41.261Z,84.34
2022-10-25T19:05:45.071Z,85.01
2022-10-25T19:08:49.434Z,84.67
2022-10-25T19:11:52.624Z,84.72
2022-10-25T19:14:55.785Z,85.51
2022-10-25T19:17:59.162Z,85.42
2022-10-25T19:21:09.066Z,85.31
2022-10-25T19:24:16.387Z,85.30
2022-10-25T19:27:19.451Z,84.72
2022-10-25T19:30:24.230Z,84.15
2022-10-25T19:33:27.389Z,83.76
2022-10-25T19:36:31.173Z,83.71
2022-10-25T19:39:36.457Z,83.05
2022-10-25T19:42:39.815Z,82.64
2022-10-25T19:45:43.568Z,83.37
2022-10-25T19:48:49.461Z,83.42
2022-10-25T19:51:55.390Z,83.77
2022-10-25T19:54:58.861Z,83.40
2022-10-25T19:58:02.600Z,83.64
2022-10-25T20:01:06.326Z,83.73
2022-10-25T20:04:09.982Z,84.02
2022-10-25T20:07:12.663Z,85.40
2022-10-25T20:10:16.099Z,85.06
2022-10-25T20:13:20.193Z,86.07
2022-10-25T20:16:24.658Z,85.51
2022-10-25T20:19:27.870Z,86.17
2022-10-25T20:22:30.961Z,85.66
2022-10-25T20:25:33.900Z,86.66
2022-10-25T20:28:36.901Z,88.25
2022-10-25T20:31:42.742Z,86.28
2022-10-25T20:34:46.165Z,89.15
2022-10-25T20:37:49.313Z,88.09
2022-10-25T20:40:52.615Z,87.93
2022-10-25T20:44:04.391Z,87.75
2022-10-25T20:47:07.641Z,87.49
2022-10-25T20:50:10.573Z,87.03
2022-10-25T20:53:13.617Z,87.33
2022-10-25T20:56:18.172Z,87.34
2022-10-25T20:59:21.099Z,88.49
2022-10-25T21:02:24.687Z,88.35
2022-10-25T21:05:28.079Z,88.42
2022-10-25T21:08:31.576Z,88.73
2022-10-25T21:11:34.484Z,87.88
2022-10-25T21:14:37.132Z,90.50
2022-10-25T21:17:40.049Z,89.40
2022-10-25T21:20:43.842Z,90.18
2022-10-25T21:23:49.132Z,90.06
2022-10-25T21:26:51.973Z,89.25
2022-10-25T21:29:57.083Z,90.94
2022-10-25T21:33:00.641Z,90.63
2022-10-25T21:36:09.284Z,90.47
2022-10-25T21:39:11.880Z,90.23
2022-10-25T21:42:15.737Z,90.14
2022-10-25T21:45:18.270Z,91.05
2022-10-25T21:48:21.220Z,90.72
2022-10-25T21:51:27.111Z,89.70
2022-10-25T21:54:30.082Z,91.47
2022-10-25T21:57:33.935Z,90.70
2022-10-25T22:00:36.827Z,89.44
2022-10-25T22:03:40.275Z,90.58
2022-10-25T22:06:42.909Z,90.62
2022-10-25T22:09:48.542Z,89.95
2022-10-25T22:12:51.532Z,89.78
2022-10-25T22:16:04.878Z,89.54
2022-10-25T22:19:15.838Z,91.17
2022-10-25T22:22:18.755Z,90.48
2022-10-25T22:25:23.319Z,90.02
2022-10-25T22:28:26.298Z,91.61
2022-10-25T22:31:29.731Z,90.78
2022-10-25T22:34:32.733Z,89.81
2022-10-25T22:37:35.336Z,89.93
2022-10-25T22:40:42.163Z,90.29
2022-10-25T22:43:45.509Z,90.12
2022-10-25T22:46:48.459Z,90.80
2022-10-25T22:49:52.515Z,90.35
2022-10-25T22:52:58.349Z,91.13
2022-10-25T22:56:17.422Z,90.96
2022-10-25T22:59:20.298Z,90.15
2022-10-25T23:02:23.184Z,90.63
2022-10-25T23:05:26.065Z,90.83
2022-10-25T23:08:29.507Z,90.40
2022-10-25T23:11:35.703Z,89.13
2022-10-25T23:14:38.310Z,90.99
2022-10-25T23:17:43.596Z,90.53
2022-10-25T23:20:54.918Z,91.60
2022-10-25T23:24:00.070Z,90.72
2022-10-25T23:27:02.762Z,90.21
2022-10-25T23:30:08.731Z,89.67
2022-10-25T23:33:14.094Z,91.15
2022-10-25T23:36:22.224Z,90.68
2022-10-25T23:39:25.138Z,90.73
2022-10-25T23:42:27.992Z,90.61
2022-10-25T23:45:32.438Z,91.08
2022-10-25T23:48:36.580Z,92.89
2022-10-25T23:51:39.284Z,91.72
2022-10-25T23:54:42.217Z,90.70
2022-10-25T23:57:44.833Z,90.29
